sensor_id;sensor_type;location;lat;lon;timestamp;temperature;humidity
4312;DHT22;2169;49.086;9.284;2023-04-01T00:00:59;10.60;66.10
4312;DHT22;2169;49.086;9.284;2023-04-01T00:03:27;10.60;66.10
4312;DHT22;2169;49.086;9.284;2023-04-01T00:05:55;10.60;66.00
4312;DHT22;2169;49.086;9.284;2023-04-01T00:08:22;10.60;66.00
4312;DHT22;2169;49.086;9.284;2023-04-01T00:10:49;10.60;66.10
4312;DHT22;2169;49.086;9.284;2023-04-01T00:13:17;10.60;66.00
4312;DHT22;2169;49.086;9.284;2023-04-01T00:15:45;10.60;66.00
4312;DHT22;2169;49.086;9.284;2023-04-01T00:18:12;10.60;66.00
4312;DHT22;2169;49.086;9.284;2023-04-01T00:20:43;10.60;66.00
4312;DHT22;2169;49.086;9.284;2023-04-01T00:23:10;10.60;66.10
4312;DHT22;2169;49.086;9.284;2023-04-01T00:25:37;10.60;66.00
4312;DHT22;2169;49.086;9.284;2023-04-01T00:28:04;10.60;66.00
4312;DHT22;2169;49.086;9.284;2023-04-01T00:30:31;10.60;66.00
4312;DHT22;2169;49.086;9.284;2023-04-01T00:32:59;10.50;65.90
4312;DHT22;2169;49.086;9.284;2023-04-01T00:35:26;10.60;66.00
4312;DHT22;2169;49.086;9.284;2023-04-01T00:37:54;10.50;65.90
4312;DHT22;2169;49.086;9.284;2023-04-01T00:40:26;10.60;66.00
4312;DHT22;2169;49.086;9.284;2023-04-01T00:42:53;10.60;66.00
4312;DHT22;2169;49.086;9.284;2023-04-01T00:45:28;10.50;65.80
4312;DHT22;2169;49.086;9.284;2023-04-01T00:47:59;10.50;65.80
4312;DHT22;2169;49.086;9.284;2023-04-01T00:50:29;10.50;65.80
4312;DHT22;2169;49.086;9.284;2023-04-01T00:52:58;10.50;65.80
4312;DHT22;2169;49.086;9.284;2023-04-01T00:55:26;10.50;65.70
4312;DHT22;2169;49.086;9.284;2023-04-01T00:57:55;10.50;65.60
4312;DHT22;2169;49.086;9.284;2023-04-01T01:00:23;10.50;65.60
4312;DHT22;2169;49.086;9.284;2023-04-01T01:02:52;10.50;65.50
4312;DHT22;2169;49.086;9.284;2023-04-01T01:05:26;10.50;65.50
4312;DHT22;2169;49.086;9.284;2023-04-01T01:08:02;10.50;65.40
4312;DHT22;2169;49.086;9.284;2023-04-01T01:10:33;10.40;65.20
4312;DHT22;2169;49.086;9.284;2023-04-01T01:13:09;10.50;65.20
4312;DHT22;2169;49.086;9.284;2023-04-01T01:15:43;10.50;65.20
4312;DHT22;2169;49.086;9.284;2023-04-01T01:18:19;10.40;65.00
4312;DHT22;2169;49.086;9.284;2023-04-01T01:21:25;10.50;65.10
4312;DHT22;2169;49.086;9.284;2023-04-01T01:24:20;10.50;65.00
4312;DHT22;2169;49.086;9.284;2023-04-01T01:26:59;10.40;64.90
4312;DHT22;2169;49.086;9.284;2023-04-01T01:29:45;10.40;64.80
4312;DHT22;2169;49.086;9.284;2023-04-01T01:32:30;10.50;64.90
4312;DHT22;2169;49.086;9.284;2023-04-01T01:35:15;10.40;64.70
4312;DHT22;2169;49.086;9.284;2023-04-01T01:37:44;10.50;64.70
4312;DHT22;2169;49.086;9.284;2023-04-01T01:40:15;10.40;64.40
4312;DHT22;2169;49.086;9.284;2023-04-01T01:42:45;10.50;64.40
4312;DHT22;2169;49.086;9.284;2023-04-01T01:45:15;10.50;64.40
4312;DHT22;2169;49.086;9.284;2023-04-01T01:47:45;10.50;64.30
4312;DHT22;2169;49.086;9.284;2023-04-01T01:50:15;10.50;64.80
4312;DHT22;2169;49.086;9.284;2023-04-01T01:52:43;10.50;64.10
4312;DHT22;2169;49.086;9.284;2023-04-01T01:55:28;10.50;64.00
4312;DHT22;2169;49.086;9.284;2023-04-01T01:57:57;10.50;63.90
4312;DHT22;2169;49.086;9.284;2023-04-01T02:00:26;10.50;63.80
4312;DHT22;2169;49.086;9.284;2023-04-01T02:02:54;10.50;63.70
4312;DHT22;2169;49.086;9.284;2023-04-01T02:05:35;10.60;63.70
4312;DHT22;2169;49.086;9.284;2023-04-01T02:08:06;10.60;63.50
4312;DHT22;2169;49.086;9.284;2023-04-01T02:10:36;10.60;63.40
4312;DHT22;2169;49.086;9.284;2023-04-01T02:13:09;10.50;63.10
4312;DHT22;2169;49.086;9.284;2023-04-01T02:15:42;10.60;63.10
4312;DHT22;2169;49.086;9.284;2023-04-01T02:18:12;10.60;63.00
4312;DHT22;2169;49.086;9.284;2023-04-01T02:20:42;10.60;63.00
4312;DHT22;2169;49.086;9.284;2023-04-01T02:23:10;10.60;62.90
4312;DHT22;2169;49.086;9.284;2023-04-01T02:25:37;10.60;62.90
4312;DHT22;2169;49.086;9.284;2023-04-01T02:28:06;10.60;62.70
4312;DHT22;2169;49.086;9.284;2023-04-01T02:30:36;10.60;62.70
4312;DHT22;2169;49.086;9.284;2023-04-01T02:33:05;10.60;62.50
4312;DHT22;2169;49.086;9.284;2023-04-01T02:35:33;10.60;62.40
4312;DHT22;2169;49.086;9.284;2023-04-01T02:38:02;10.60;62.30
4312;DHT22;2169;49.086;9.284;2023-04-01T02:40:29;10.60;62.20
4312;DHT22;2169;49.086;9.284;2023-04-01T02:42:56;10.60;62.20
4312;DHT22;2169;49.086;9.284;2023-04-01T02:45:23;10.60;62.10
4312;DHT22;2169;49.086;9.284;2023-04-01T02:47:50;10.70;62.20
4312;DHT22;2169;49.086;9.284;2023-04-01T02:50:17;10.70;62.10
4312;DHT22;2169;49.086;9.284;2023-04-01T02:52:46;10.70;62.00
4312;DHT22;2169;49.086;9.284;2023-04-01T02:55:14;10.70;61.90
4312;DHT22;2169;49.086;9.284;2023-04-01T02:57:41;10.60;61.80
4312;DHT22;2169;49.086;9.284;2023-04-01T03:00:09;10.60;61.90
4312;DHT22;2169;49.086;9.284;2023-04-01T03:02:37;10.60;62.00
4312;DHT22;2169;49.086;9.284;2023-04-01T03:05:05;10.60;62.00
4312;DHT22;2169;49.086;9.284;2023-04-01T03:07:32;10.60;61.90
4312;DHT22;2169;49.086;9.284;2023-04-01T03:09:59;10.60;61.90
4312;DHT22;2169;49.086;9.284;2023-04-01T03:12:28;10.60;61.80
4312;DHT22;2169;49.086;9.284;2023-04-01T03:14:55;10.50;61.60
4312;DHT22;2169;49.086;9.284;2023-04-01T03:17:22;10.60;61.60
4312;DHT22;2169;49.086;9.284;2023-04-01T03:19:49;10.50;61.50
4312;DHT22;2169;49.086;9.284;2023-04-01T03:22:17;10.50;61.40
4312;DHT22;2169;49.086;9.284;2023-04-01T03:24:46;10.80;61.10
4312;DHT22;2169;49.086;9.284;2023-04-01T03:27:13;10.60;61.00
4312;DHT22;2169;49.086;9.284;2023-04-01T03:29:42;10.60;61.20
4312;DHT22;2169;49.086;9.284;2023-04-01T03:32:09;10.60;61.30
4312;DHT22;2169;49.086;9.284;2023-04-01T03:34:36;10.50;61.20
4312;DHT22;2169;49.086;9.284;2023-04-01T03:37:04;10.50;61.20
4312;DHT22;2169;49.086;9.284;2023-04-01T03:39:31;10.50;61.20
4312;DHT22;2169;49.086;9.284;2023-04-01T03:41:59;10.50;61.20
4312;DHT22;2169;49.086;9.284;2023-04-01T03:44:26;10.50;61.20
4312;DHT22;2169;49.086;9.284;2023-04-01T03:46:54;10.50;61.20
4312;DHT22;2169;49.086;9.284;2023-04-01T03:49:21;10.50;61.20
4312;DHT22;2169;49.086;9.284;2023-04-01T03:51:47;10.40;61.10
4312;DHT22;2169;49.086;9.284;2023-04-01T03:54:14;10.40;61.10
4312;DHT22;2169;49.086;9.284;2023-04-01T03:56:42;10.40;61.20
4312;DHT22;2169;49.086;9.284;2023-04-01T03:59:09;10.40;61.20
4312;DHT22;2169;49.086;9.284;2023-04-01T04:01:36;10.40;61.20
4312;DHT22;2169;49.086;9.284;2023-04-01T04:04:04;10.40;61.30
4312;DHT22;2169;49.086;9.284;2023-04-01T04:06:32;10.40;61.30
4312;DHT22;2169;49.086;9.284;2023-04-01T04:08:59;10.40;61.30
4312;DHT22;2169;49.086;9.284;2023-04-01T04:11:26;10.40;61.30
4312;DHT22;2169;49.086;9.284;2023-04-01T04:13:53;10.40;61.30
4312;DHT22;2169;49.086;9.284;2023-04-01T04:16:20;10.40;61.30
4312;DHT22;2169;49.086;9.284;2023-04-01T04:18:48;10.40;61.40
4312;DHT22;2169;49.086;9.284;2023-04-01T04:21:18;10.40;61.40
4312;DHT22;2169;49.086;9.284;2023-04-01T04:23:45;10.40;61.40
4312;DHT22;2169;49.086;9.284;2023-04-01T04:26:13;10.40;61.40
4312;DHT22;2169;49.086;9.284;2023-04-01T04:28:41;10.40;61.40
4312;DHT22;2169;49.086;9.284;2023-04-01T04:31:08;10.40;61.40
4312;DHT22;2169;49.086;9.284;2023-04-01T04:33:35;10.40;61.40
4312;DHT22;2169;49.086;9.284;2023-04-01T04:36:03;10.40;61.50
4312;DHT22;2169;49.086;9.284;2023-04-01T04:38:32;10.40;61.50
4312;DHT22;2169;49.086;9.284;2023-04-01T04:40:59;10.40;61.60
4312;DHT22;2169;49.086;9.284;2023-04-01T04:43:26;10.40;61.60
4312;DHT22;2169;49.086;9.284;2023-04-01T04:45:53;10.40;61.70
4312;DHT22;2169;49.086;9.284;2023-04-01T04:48:20;10.40;61.80
4312;DHT22;2169;49.086;9.284;2023-04-01T04:50:47;10.30;61.80
4312;DHT22;2169;49.086;9.284;2023-04-01T04:53:15;10.30;61.90
4312;DHT22;2169;49.086;9.284;2023-04-01T04:55:45;10.30;62.00
4312;DHT22;2169;49.086;9.284;2023-04-01T04:58:12;10.20;62.10
4312;DHT22;2169;49.086;9.284;2023-04-01T05:00:40;10.20;62.20
4312;DHT22;2169;49.086;9.284;2023-04-01T05:03:08;10.20;62.30
4312;DHT22;2169;49.086;9.284;2023-04-01T05:05:35;10.10;62.40
4312;DHT22;2169;49.086;9.284;2023-04-01T05:08:02;10.20;62.60
4312;DHT22;2169;49.086;9.284;2023-04-01T05:10:29;10.10;62.60
4312;DHT22;2169;49.086;9.284;2023-04-01T05:12:58;10.10;62.70
4312;DHT22;2169;49.086;9.284;2023-04-01T05:15:25;10.10;62.80
4312;DHT22;2169;49.086;9.284;2023-04-01T05:17:52;10.10;62.90
4312;DHT22;2169;49.086;9.284;2023-04-01T05:20:19;10.10;63.00
4312;DHT22;2169;49.086;9.284;2023-04-01T05:22:46;10.00;63.00
4312;DHT22;2169;49.086;9.284;2023-04-01T05:25:12;10.00;63.10
4312;DHT22;2169;49.086;9.284;2023-04-01T05:27:39;10.00;63.20
4312;DHT22;2169;49.086;9.284;2023-04-01T05:30:09;10.00;63.30
4312;DHT22;2169;49.086;9.284;2023-04-01T05:32:36;10.00;63.40
4312;DHT22;2169;49.086;9.284;2023-04-01T05:35:05;10.00;63.40
4312;DHT22;2169;49.086;9.284;2023-04-01T05:37:33;10.00;63.40
4312;DHT22;2169;49.086;9.284;2023-04-01T05:40:00;10.00;63.50
4312;DHT22;2169;49.086;9.284;2023-04-01T05:42:27;9.90;64.50
4312;DHT22;2169;49.086;9.284;2023-04-01T05:44:54;10.00;63.50
4312;DHT22;2169;49.086;9.284;2023-04-01T05:47:23;10.00;63.60
4312;DHT22;2169;49.086;9.284;2023-04-01T05:49:50;10.00;63.60
4312;DHT22;2169;49.086;9.284;2023-04-01T05:52:18;9.90;64.60
4312;DHT22;2169;49.086;9.284;2023-04-01T05:54:45;10.00;63.70
4312;DHT22;2169;49.086;9.284;2023-04-01T05:57:12;10.00;64.40
4312;DHT22;2169;49.086;9.284;2023-04-01T05:59:39;9.90;64.70
4312;DHT22;2169;49.086;9.284;2023-04-01T06:02:09;10.00;63.80
4312;DHT22;2169;49.086;9.284;2023-04-01T06:04:39;9.90;64.70
4312;DHT22;2169;49.086;9.284;2023-04-01T06:07:11;9.90;64.80
4312;DHT22;2169;49.086;9.284;2023-04-01T06:09:38;10.00;63.80
4312;DHT22;2169;49.086;9.284;2023-04-01T06:12:26;9.90;64.80
4312;DHT22;2169;49.086;9.284;2023-04-01T06:15:04;10.00;63.90
4312;DHT22;2169;49.086;9.284;2023-04-01T06:17:44;9.90;64.90
4312;DHT22;2169;49.086;9.284;2023-04-01T06:20:22;10.00;63.90
4312;DHT22;2169;49.086;9.284;2023-04-01T06:23:09;10.00;64.00
4312;DHT22;2169;49.086;9.284;2023-04-01T06:25:53;10.00;64.10
4312;DHT22;2169;49.086;9.284;2023-04-01T06:28:42;9.90;65.10
4312;DHT22;2169;49.086;9.284;2023-04-01T06:31:25;9.90;65.20
4312;DHT22;2169;49.086;9.284;2023-04-01T06:34:04;9.90;65.30
4312;DHT22;2169;49.086;9.284;2023-04-01T06:37:01;9.90;65.30
4312;DHT22;2169;49.086;9.284;2023-04-01T06:39:54;9.90;65.40
4312;DHT22;2169;49.086;9.284;2023-04-01T06:42:35;9.90;65.40
4312;DHT22;2169;49.086;9.284;2023-04-01T06:45:15;9.90;65.60
4312;DHT22;2169;49.086;9.284;2023-04-01T06:48:06;9.90;65.60
4312;DHT22;2169;49.086;9.284;2023-04-01T06:50:43;9.90;65.60
4312;DHT22;2169;49.086;9.284;2023-04-01T06:53:21;9.90;65.70
4312;DHT22;2169;49.086;9.284;2023-04-01T06:55:53;9.90;65.70
4312;DHT22;2169;49.086;9.284;2023-04-01T06:58:24;9.90;65.80
4312;DHT22;2169;49.086;9.284;2023-04-01T07:00:54;9.90;65.80
4312;DHT22;2169;49.086;9.284;2023-04-01T07:03:29;10.00;65.00
4312;DHT22;2169;49.086;9.284;2023-04-01T07:06:01;10.00;65.00
4312;DHT22;2169;49.086;9.284;2023-04-01T07:08:36;10.00;65.00
4312;DHT22;2169;49.086;9.284;2023-04-01T07:11:08;10.10;65.10
4312;DHT22;2169;49.086;9.284;2023-04-01T07:13:41;10.10;65.10
4312;DHT22;2169;49.086;9.284;2023-04-01T07:16:13;10.10;65.00
4312;DHT22;2169;49.086;9.284;2023-04-01T07:18:45;10.10;65.00
4312;DHT22;2169;49.086;9.284;2023-04-01T07:21:22;10.20;65.10
4312;DHT22;2169;49.086;9.284;2023-04-01T07:23:52;10.20;65.10
4312;DHT22;2169;49.086;9.284;2023-04-01T07:26:23;10.20;65.00
4312;DHT22;2169;49.086;9.284;2023-04-01T07:28:51;10.20;64.90
4312;DHT22;2169;49.086;9.284;2023-04-01T07:31:36;10.20;64.90
4312;DHT22;2169;49.086;9.284;2023-04-01T07:34:19;10.20;64.90
4312;DHT22;2169;49.086;9.284;2023-04-01T07:36:52;10.30;64.90
4312;DHT22;2169;49.086;9.284;2023-04-01T07:39:31;10.30;64.80
4312;DHT22;2169;49.086;9.284;2023-04-01T07:42:07;10.30;64.60
4312;DHT22;2169;49.086;9.284;2023-04-01T07:44:41;10.30;64.60
4312;DHT22;2169;49.086;9.284;2023-04-01T07:47:25;10.30;64.50
4312;DHT22;2169;49.086;9.284;2023-04-01T07:50:04;10.30;64.50
4312;DHT22;2169;49.086;9.284;2023-04-01T07:52:38;10.30;64.50
4312;DHT22;2169;49.086;9.284;2023-04-01T07:55:15;10.40;64.50
4312;DHT22;2169;49.086;9.284;2023-04-01T07:57:49;10.40;64.40
4312;DHT22;2169;49.086;9.284;2023-04-01T08:00:20;10.40;64.40
4312;DHT22;2169;49.086;9.284;2023-04-01T08:03:10;10.40;64.30
4312;DHT22;2169;49.086;9.284;2023-04-01T08:05:47;10.40;64.30
4312;DHT22;2169;49.086;9.284;2023-04-01T08:08:22;10.40;64.20
4312;DHT22;2169;49.086;9.284;2023-04-01T08:10:57;10.40;64.10
4312;DHT22;2169;49.086;9.284;2023-04-01T08:13:30;10.50;64.20
4312;DHT22;2169;49.086;9.284;2023-04-01T08:16:08;10.40;64.10
4312;DHT22;2169;49.086;9.284;2023-04-01T08:18:40;10.40;64.10
4312;DHT22;2169;49.086;9.284;2023-04-01T08:21:12;10.40;64.10
4312;DHT22;2169;49.086;9.284;2023-04-01T08:23:44;10.50;64.20
4312;DHT22;2169;49.086;9.284;2023-04-01T08:26:23;10.50;64.30
4312;DHT22;2169;49.086;9.284;2023-04-01T08:28:56;10.50;64.40
4312;DHT22;2169;49.086;9.284;2023-04-01T08:31:30;10.50;64.60
4312;DHT22;2169;49.086;9.284;2023-04-01T08:34:01;10.50;64.80
4312;DHT22;2169;49.086;9.284;2023-04-01T08:36:34;10.50;65.00
4312;DHT22;2169;49.086;9.284;2023-04-01T08:39:06;10.50;65.20
4312;DHT22;2169;49.086;9.284;2023-04-01T08:41:55;10.50;65.40
4312;DHT22;2169;49.086;9.284;2023-04-01T08:44:38;10.50;65.60
4312;DHT22;2169;49.086;9.284;2023-04-01T08:47:24;10.50;65.90
4312;DHT22;2169;49.086;9.284;2023-04-01T08:50:23;10.50;66.00
4312;DHT22;2169;49.086;9.284;2023-04-01T08:53:00;10.50;66.30
4312;DHT22;2169;49.086;9.284;2023-04-01T08:55:38;10.50;66.40
4312;DHT22;2169;49.086;9.284;2023-04-01T08:58:25;10.50;66.60
4312;DHT22;2169;49.086;9.284;2023-04-01T09:01:00;10.50;66.60
4312;DHT22;2169;49.086;9.284;2023-04-01T09:03:39;10.50;66.70
4312;DHT22;2169;49.086;9.284;2023-04-01T09:06:24;10.50;66.80
4312;DHT22;2169;49.086;9.284;2023-04-01T09:12:31;10.50;67.00
4312;DHT22;2169;49.086;9.284;2023-04-01T09:18:24;10.50;67.20
4312;DHT22;2169;49.086;9.284;2023-04-01T09:21:04;10.50;67.20
4312;DHT22;2169;49.086;9.284;2023-04-01T09:23:48;10.50;67.30
4312;DHT22;2169;49.086;9.284;2023-04-01T09:26:43;10.50;67.40
4312;DHT22;2169;49.086;9.284;2023-04-01T09:29:25;10.50;67.40
4312;DHT22;2169;49.086;9.284;2023-04-01T09:35:02;10.50;67.50
4312;DHT22;2169;49.086;9.284;2023-04-01T09:37:35;10.50;67.70
4312;DHT22;2169;49.086;9.284;2023-04-01T09:40:31;10.50;67.70
4312;DHT22;2169;49.086;9.284;2023-04-01T09:43:15;10.50;67.70
4312;DHT22;2169;49.086;9.284;2023-04-01T09:45:55;10.50;67.80
4312;DHT22;2169;49.086;9.284;2023-04-01T09:51:34;10.60;67.90
4312;DHT22;2169;49.086;9.284;2023-04-01T09:54:18;10.50;67.80
4312;DHT22;2169;49.086;9.284;2023-04-01T10:00:28;10.60;68.00
4312;DHT22;2169;49.086;9.284;2023-04-01T10:06:51;10.60;67.90
4312;DHT22;2169;49.086;9.284;2023-04-01T10:12:55;10.60;67.50
4312;DHT22;2169;49.086;9.284;2023-04-01T10:18:41;10.60;67.30
4312;DHT22;2169;49.086;9.284;2023-04-01T10:21:35;10.60;66.80
4312;DHT22;2169;49.086;9.284;2023-04-01T10:27:33;10.60;66.60
4312;DHT22;2169;49.086;9.284;2023-04-01T10:30:26;10.70;66.80
4312;DHT22;2169;49.086;9.284;2023-04-01T10:33:24;10.70;66.90
4312;DHT22;2169;49.086;9.284;2023-04-01T10:42:41;10.70;67.00
4312;DHT22;2169;49.086;9.284;2023-04-01T10:48:19;10.70;67.10
4312;DHT22;2169;49.086;9.284;2023-04-01T10:51:10;10.70;67.20
4312;DHT22;2169;49.086;9.284;2023-04-01T10:53:52;10.70;67.20
4312;DHT22;2169;49.086;9.284;2023-04-01T10:56:40;10.70;67.40
4312;DHT22;2169;49.086;9.284;2023-04-01T11:09:16;10.70;67.40
4312;DHT22;2169;49.086;9.284;2023-04-01T11:18:42;10.80;67.80
4312;DHT22;2169;49.086;9.284;2023-04-01T11:21:37;10.80;67.80
4312;DHT22;2169;49.086;9.284;2023-04-01T11:24:26;10.80;68.60
4312;DHT22;2169;49.086;9.284;2023-04-01T11:27:11;10.70;67.80
4312;DHT22;2169;49.086;9.284;2023-04-01T11:29:58;10.80;68.10
4312;DHT22;2169;49.086;9.284;2023-04-01T11:32:39;10.80;68.10
4312;DHT22;2169;49.086;9.284;2023-04-01T11:35:25;10.80;68.10
4312;DHT22;2169;49.086;9.284;2023-04-01T11:38:05;10.80;68.10
4312;DHT22;2169;49.086;9.284;2023-04-01T11:40:39;10.80;68.20
4312;DHT22;2169;49.086;9.284;2023-04-01T11:43:15;10.80;68.20
4312;DHT22;2169;49.086;9.284;2023-04-01T11:45:49;10.80;68.20
4312;DHT22;2169;49.086;9.284;2023-04-01T11:48:35;10.80;68.20
4312;DHT22;2169;49.086;9.284;2023-04-01T11:51:19;10.80;68.20
4312;DHT22;2169;49.086;9.284;2023-04-01T11:53:52;10.90;68.30
4312;DHT22;2169;49.086;9.284;2023-04-01T11:56:36;10.90;68.20
4312;DHT22;2169;49.086;9.284;2023-04-01T11:59:28;10.90;68.10
4312;DHT22;2169;49.086;9.284;2023-04-01T12:02:08;10.90;68.00
4312;DHT22;2169;49.086;9.284;2023-04-01T12:04:54;11.00;68.00
4312;DHT22;2169;49.086;9.284;2023-04-01T12:07:44;11.00;67.80
4312;DHT22;2169;49.086;9.284;2023-04-01T12:10:18;11.00;67.70
4312;DHT22;2169;49.086;9.284;2023-04-01T12:12:58;11.00;67.60
4312;DHT22;2169;49.086;9.284;2023-04-01T12:15:36;11.00;67.50
4312;DHT22;2169;49.086;9.284;2023-04-01T12:18:15;11.10;67.60
4312;DHT22;2169;49.086;9.284;2023-04-01T12:20:49;11.10;67.40
4312;DHT22;2169;49.086;9.284;2023-04-01T12:23:44;11.10;67.20
4312;DHT22;2169;49.086;9.284;2023-04-01T12:26:41;11.10;67.20
4312;DHT22;2169;49.086;9.284;2023-04-01T12:29:27;11.10;67.20
4312;DHT22;2169;49.086;9.284;2023-04-01T12:32:02;11.10;67.20
4312;DHT22;2169;49.086;9.284;2023-04-01T12:34:54;11.10;67.10
4312;DHT22;2169;49.086;9.284;2023-04-01T12:37:36;11.10;67.10
4312;DHT22;2169;49.086;9.284;2023-04-01T12:40:20;11.10;67.10
4312;DHT22;2169;49.086;9.284;2023-04-01T12:42:59;11.10;67.20
4312;DHT22;2169;49.086;9.284;2023-04-01T12:45:30;11.20;67.90
4312;DHT22;2169;49.086;9.284;2023-04-01T12:57:59;11.20;68.00
4312;DHT22;2169;49.086;9.284;2023-04-01T13:00:43;11.10;67.40
4312;DHT22;2169;49.086;9.284;2023-04-01T13:03:31;11.20;67.50
4312;DHT22;2169;49.086;9.284;2023-04-01T13:06:24;11.20;67.50
4312;DHT22;2169;49.086;9.284;2023-04-01T13:08:58;11.20;67.60
4312;DHT22;2169;49.086;9.284;2023-04-01T13:11:35;11.20;67.60
4312;DHT22;2169;49.086;9.284;2023-04-01T13:14:18;11.20;67.60
4312;DHT22;2169;49.086;9.284;2023-04-01T13:16:54;11.20;67.60
4312;DHT22;2169;49.086;9.284;2023-04-01T13:19:27;11.20;67.60
4312;DHT22;2169;49.086;9.284;2023-04-01T13:22:03;11.20;67.60
4312;DHT22;2169;49.086;9.284;2023-04-01T13:24:40;11.20;67.50
4312;DHT22;2169;49.086;9.284;2023-04-01T13:27:14;11.20;67.40
4312;DHT22;2169;49.086;9.284;2023-04-01T13:29:50;11.20;67.40
4312;DHT22;2169;49.086;9.284;2023-04-01T13:32:29;11.20;67.30
4312;DHT22;2169;49.086;9.284;2023-04-01T13:35:16;11.20;67.20
4312;DHT22;2169;49.086;9.284;2023-04-01T13:37:54;11.20;67.20
4312;DHT22;2169;49.086;9.284;2023-04-01T13:40:33;11.20;67.10
4312;DHT22;2169;49.086;9.284;2023-04-01T13:43:07;11.20;67.10
4312;DHT22;2169;49.086;9.284;2023-04-01T13:45:55;11.20;67.10
4312;DHT22;2169;49.086;9.284;2023-04-01T13:48:39;11.20;67.00
4312;DHT22;2169;49.086;9.284;2023-04-01T13:51:39;11.20;67.00
4312;DHT22;2169;49.086;9.284;2023-04-01T13:54:38;11.20;67.00
4312;DHT22;2169;49.086;9.284;2023-04-01T13:57:27;11.20;67.00
4312;DHT22;2169;49.086;9.284;2023-04-01T14:00:03;11.20;67.20
4312;DHT22;2169;49.086;9.284;2023-04-01T14:02:50;11.20;67.00
4312;DHT22;2169;49.086;9.284;2023-04-01T14:05:32;11.20;66.90
4312;DHT22;2169;49.086;9.284;2023-04-01T14:08:13;11.30;66.80
4312;DHT22;2169;49.086;9.284;2023-04-01T14:10:43;11.20;66.50
4312;DHT22;2169;49.086;9.284;2023-04-01T14:13:18;11.20;66.50
4312;DHT22;2169;49.086;9.284;2023-04-01T14:16:00;11.20;66.40
4312;DHT22;2169;49.086;9.284;2023-04-01T14:18:42;11.20;66.50
4312;DHT22;2169;49.086;9.284;2023-04-01T14:21:22;11.20;66.40
4312;DHT22;2169;49.086;9.284;2023-04-01T14:24:06;11.20;66.40
4312;DHT22;2169;49.086;9.284;2023-04-01T14:29:48;11.20;66.40
4312;DHT22;2169;49.086;9.284;2023-04-01T14:32:27;11.20;66.40
4312;DHT22;2169;49.086;9.284;2023-04-01T14:35:19;11.20;66.40
4312;DHT22;2169;49.086;9.284;2023-04-01T14:41:10;11.20;66.30
4312;DHT22;2169;49.086;9.284;2023-04-01T14:47:18;11.20;66.10
4312;DHT22;2169;49.086;9.284;2023-04-01T14:49:52;11.20;66.10
4312;DHT22;2169;49.086;9.284;2023-04-01T14:52:27;11.20;66.20
4312;DHT22;2169;49.086;9.284;2023-04-01T14:54:54;11.20;66.20
4312;DHT22;2169;49.086;9.284;2023-04-01T14:57:25;11.20;66.10
4312;DHT22;2169;49.086;9.284;2023-04-01T14:59:59;11.20;66.10
4312;DHT22;2169;49.086;9.284;2023-04-01T15:02:45;11.10;66.00
4312;DHT22;2169;49.086;9.284;2023-04-01T15:05:20;11.20;66.10
4312;DHT22;2169;49.086;9.284;2023-04-01T15:08:01;11.20;66.00
4312;DHT22;2169;49.086;9.284;2023-04-01T15:10:49;11.20;65.90
4312;DHT22;2169;49.086;9.284;2023-04-01T15:13:25;11.20;65.90
4312;DHT22;2169;49.086;9.284;2023-04-01T15:16:08;11.20;65.90
4312;DHT22;2169;49.086;9.284;2023-04-01T15:18:44;11.20;66.00
4312;DHT22;2169;49.086;9.284;2023-04-01T15:21:19;11.20;66.00
4312;DHT22;2169;49.086;9.284;2023-04-01T15:24:05;11.20;66.10
4312;DHT22;2169;49.086;9.284;2023-04-01T15:26:51;11.20;66.10
4312;DHT22;2169;49.086;9.284;2023-04-01T15:29:32;11.20;66.00
4312;DHT22;2169;49.086;9.284;2023-04-01T15:32:04;11.20;66.00
4312;DHT22;2169;49.086;9.284;2023-04-01T15:34:36;11.20;66.00
4312;DHT22;2169;49.086;9.284;2023-04-01T15:37:11;11.20;66.00
4312;DHT22;2169;49.086;9.284;2023-04-01T15:39:51;11.20;66.10
4312;DHT22;2169;49.086;9.284;2023-04-01T15:42:34;11.20;66.10
4312;DHT22;2169;49.086;9.284;2023-04-01T15:45:11;11.20;66.10
4312;DHT22;2169;49.086;9.284;2023-04-01T15:47:42;11.20;66.10
4312;DHT22;2169;49.086;9.284;2023-04-01T15:53:35;11.20;66.10
4312;DHT22;2169;49.086;9.284;2023-04-01T15:59:09;11.20;66.10
4312;DHT22;2169;49.086;9.284;2023-04-01T16:01:44;11.20;66.10
4312;DHT22;2169;49.086;9.284;2023-04-01T16:04:41;11.30;66.20
4312;DHT22;2169;49.086;9.284;2023-04-01T16:07:11;11.20;66.00
4312;DHT22;2169;49.086;9.284;2023-04-01T16:10:03;11.20;66.00
4312;DHT22;2169;49.086;9.284;2023-04-01T16:12:44;11.30;66.00
4312;DHT22;2169;49.086;9.284;2023-04-01T16:15:21;11.20;65.90
4312;DHT22;2169;49.086;9.284;2023-04-01T16:18:04;11.20;65.80
4312;DHT22;2169;49.086;9.284;2023-04-01T16:20:46;11.20;65.80
4312;DHT22;2169;49.086;9.284;2023-04-01T16:23:20;11.20;65.80
4312;DHT22;2169;49.086;9.284;2023-04-01T16:25:54;11.20;65.80
4312;DHT22;2169;49.086;9.284;2023-04-01T16:28:29;11.20;65.80
4312;DHT22;2169;49.086;9.284;2023-04-01T16:30:59;11.20;65.80
4312;DHT22;2169;49.086;9.284;2023-04-01T16:33:37;11.30;65.80
4312;DHT22;2169;49.086;9.284;2023-04-01T16:36:11;11.30;65.70
4312;DHT22;2169;49.086;9.284;2023-04-01T16:38:43;11.30;65.70
4312;DHT22;2169;49.086;9.284;2023-04-01T16:41:17;11.30;65.70
4312;DHT22;2169;49.086;9.284;2023-04-01T16:43:48;11.30;65.70
4312;DHT22;2169;49.086;9.284;2023-04-01T16:46:32;11.30;65.70
4312;DHT22;2169;49.086;9.284;2023-04-01T16:49:13;11.30;65.70
4312;DHT22;2169;49.086;9.284;2023-04-01T16:51:46;11.30;65.70
4312;DHT22;2169;49.086;9.284;2023-04-01T16:54:18;11.30;65.70
4312;DHT22;2169;49.086;9.284;2023-04-01T16:56:53;11.30;65.60
4312;DHT22;2169;49.086;9.284;2023-04-01T16:59:26;11.30;65.70
4312;DHT22;2169;49.086;9.284;2023-04-01T17:02:02;11.30;65.70
4312;DHT22;2169;49.086;9.284;2023-04-01T17:04:34;11.30;65.70
4312;DHT22;2169;49.086;9.284;2023-04-01T17:07:12;11.30;65.60
4312;DHT22;2169;49.086;9.284;2023-04-01T17:09:53;11.30;65.60
4312;DHT22;2169;49.086;9.284;2023-04-01T17:12:26;11.30;65.50
4312;DHT22;2169;49.086;9.284;2023-04-01T17:15:01;11.30;65.50
4312;DHT22;2169;49.086;9.284;2023-04-01T17:17:41;11.30;65.40
4312;DHT22;2169;49.086;9.284;2023-04-01T17:20:19;11.30;65.40
4312;DHT22;2169;49.086;9.284;2023-04-01T17:22:54;11.30;65.40
4312;DHT22;2169;49.086;9.284;2023-04-01T17:25:36;11.30;65.40
4312;DHT22;2169;49.086;9.284;2023-04-01T17:28:12;11.30;65.40
4312;DHT22;2169;49.086;9.284;2023-04-01T17:30:51;11.30;65.40
4312;DHT22;2169;49.086;9.284;2023-04-01T17:33:39;11.30;65.40
4312;DHT22;2169;49.086;9.284;2023-04-01T17:36:21;11.30;65.40
4312;DHT22;2169;49.086;9.284;2023-04-01T17:39:01;11.40;65.40
4312;DHT22;2169;49.086;9.284;2023-04-01T17:41:40;11.30;65.30
4312;DHT22;2169;49.086;9.284;2023-04-01T17:44:18;11.40;65.40
4312;DHT22;2169;49.086;9.284;2023-04-01T17:47:14;11.40;65.40
4312;DHT22;2169;49.086;9.284;2023-04-01T17:49:51;11.40;65.40
4312;DHT22;2169;49.086;9.284;2023-04-01T17:52:26;11.40;65.40
4312;DHT22;2169;49.086;9.284;2023-04-01T17:55:09;11.40;65.40
4312;DHT22;2169;49.086;9.284;2023-04-01T17:57:46;11.40;65.40
4312;DHT22;2169;49.086;9.284;2023-04-01T18:00:22;11.30;65.30
4312;DHT22;2169;49.086;9.284;2023-04-01T18:03:00;11.40;65.40
4312;DHT22;2169;49.086;9.284;2023-04-01T18:05:52;11.30;65.30
4312;DHT22;2169;49.086;9.284;2023-04-01T18:08:37;11.30;65.40
4312;DHT22;2169;49.086;9.284;2023-04-01T18:11:12;11.30;65.50
4312;DHT22;2169;49.086;9.284;2023-04-01T18:16:45;11.30;65.50
4312;DHT22;2169;49.086;9.284;2023-04-01T18:19:25;11.20;65.40
4312;DHT22;2169;49.086;9.284;2023-04-01T18:21:58;11.20;65.40